createdAt,value
2018-06-01T00:02:24.987Z,25.70
2018-06-01T00:04:52.559Z,25.60
2018-06-01T00:07:20.144Z,25.60
2018-06-01T00:09:47.703Z,25.60
2018-06-01T00:12:15.222Z,25.50
2018-06-01T00:14:43.550Z,25.50
2018-06-01T00:17:11.080Z,25.40
2018-06-01T00:19:38.637Z,25.50
2018-06-01T00:22:06.150Z,25.50
2018-06-01T00:24:33.711Z,25.40
2018-06-01T00:27:01.217Z,25.40
2018-06-01T00:29:28.763Z,25.40
2018-06-01T00:31:56.299Z,25.40
2018-06-01T00:34:23.843Z,25.30
2018-06-01T00:36:51.381Z,25.20
2018-06-01T00:39:18.922Z,25.20
2018-06-01T00:41:46.457Z,25.20
2018-06-01T00:44:15.136Z,25.10
2018-06-01T00:46:42.710Z,25.00
2018-06-01T00:49:10.255Z,25.00
2018-06-01T00:51:37.760Z,25.00
2018-06-01T00:54:05.313Z,25.00
2018-06-01T00:56:33.605Z,24.90
2018-06-01T00:59:01.926Z,24.80
2018-06-01T01:01:29.446Z,24.80
2018-06-01T01:03:56.986Z,24.70
2018-06-01T01:06:24.535Z,24.60
2018-06-01T01:08:52.100Z,24.50
2018-06-01T01:11:19.635Z,24.40
2018-06-01T01:13:47.930Z,24.30
2018-06-01T01:16:16.244Z,24.20
2018-06-01T12:54:52.438Z,34.70
2018-06-01T12:57:25.756Z,34.60
2018-06-01T13:02:35.067Z,34.60
2018-06-01T13:05:25.445Z,34.50
2018-06-01T13:17:27.106Z,34.40
2018-06-01T13:20:23.700Z,34.40
2018-06-01T13:23:07.627Z,34.30
2018-06-01T13:25:42.541Z,34.30
2018-06-01T13:29:17.458Z,34.40
2018-06-01T13:32:08.264Z,34.40
2018-06-01T13:37:30.303Z,34.40
2018-06-01T13:40:06.094Z,34.40
2018-06-01T14:06:35.556Z,34.80
2018-06-01T14:20:17.144Z,34.80
2018-06-01T14:22:44.705Z,34.70
2018-06-01T15:26:24.299Z,34.50
2018-06-01T17:40:06.344Z,33.10
2018-06-01T17:45:38.427Z,32.90
2018-06-01T20:38:30.307Z,28.30
2018-06-01T20:41:22.059Z,28.10
2018-06-01T20:43:57.744Z,28.10
2018-06-01T21:54:02.000Z,28.20
2018-06-01T21:56:30.291Z,26.80
2018-06-01T21:58:57.836Z,26.80
2018-06-01T22:01:25.446Z,26.90
2018-06-01T22:03:53.009Z,26.90
2018-06-01T22:06:20.561Z,27.00
2018-06-01T22:08:48.095Z,27.00
2018-06-01T22:11:16.478Z,27.00
2018-06-01T22:13:44.076Z,27.10
2018-06-01T22:16:12.456Z,27.10
2018-06-01T22:18:40.055Z,27.10
2018-06-01T22:21:09.192Z,27.10
2018-06-01T22:23:36.746Z,27.10
2018-06-01T22:26:04.918Z,27.10
2018-06-01T22:31:11.608Z,27.00
2018-06-01T22:33:39.114Z,27.10
2018-06-01T22:36:06.694Z,27.10
2018-06-01T22:38:34.259Z,27.00
2018-06-01T22:41:01.807Z,27.10
2018-06-01T22:43:29.449Z,27.00
2018-06-01T22:45:57.019Z,27.00
2018-06-01T22:50:59.332Z,27.00
2018-06-01T22:53:26.900Z,26.90
2018-06-01T22:55:54.470Z,27.00
2018-06-01T22:58:23.968Z,27.00
2018-06-01T23:00:52.387Z,26.90
2018-06-01T23:03:19.910Z,26.80
2018-06-01T23:05:47.494Z,26.90
2018-06-01T23:08:15.040Z,26.90
2018-06-01T23:10:43.362Z,26.80
2018-06-01T23:13:11.922Z,26.70
2018-06-01T23:15:39.523Z,26.70
2018-06-01T23:18:07.080Z,26.70
2018-06-01T23:20:34.625Z,26.70
2018-06-01T23:23:02.171Z,26.70
2018-06-01T23:25:29.759Z,26.60
2018-06-01T23:27:57.291Z,26.50
2018-06-01T23:30:24.826Z,26.50
2018-06-01T23:32:52.379Z,26.50
2018-06-01T23:35:19.940Z,26.40
2018-06-01T23:37:47.503Z,26.30
2018-06-01T23:40:15.825Z,26.30
2018-06-01T23:42:43.355Z,26.20
2018-06-01T23:45:10.955Z,26.20
2018-06-01T23:47:38.521Z,26.20
2018-06-01T23:50:06.078Z,26.10
2018-06-01T23:55:07.490Z,26.10
2018-06-01T23:57:35.019Z,26.10
